Time;durP1;ratioP1;P1;durP2;ratioP2;P2;SDS_P1;SDS_P2;PMS_P1;PMS_P2;Temp;Humidity;BMP_temperature;BMP_pressure;BME280_temperature;BME280_humidity;BME280_pressure;Samples;Min_cycle;Max_cycle;Signal;HPM_P1;HPM_P2
2022/01/05 00:01:07;;;;;;;0.20;0.20;;;;;;;19.53;44.57;99645.50;5128482;28;20073;-35
2022/01/05 00:03:33;;;;;;;0.20;0.20;;;;;;;19.55;44.79;99651.50;5127611;28;20050;-34
2022/01/05 00:05:59;;;;;;;0.20;0.20;;;;;;;19.53;44.83;99656.53;5129587;28;20091;-34
2022/01/05 00:08:25;;;;;;;0.20;0.20;;;;;;;19.53;44.86;99657.34;5129714;28;20043;-34
2022/01/05 00:10:52;;;;;;;0.20;0.20;;;;;;;19.53;44.85;99659.31;5129353;28;20047;-36
2022/01/05 00:13:18;;;;;;;0.20;0.20;;;;;;;19.52;44.54;99661.25;5126685;27;20051;-34
2022/01/05 00:15:44;;;;;;;0.20;0.20;;;;;;;19.52;44.85;99660.44;5130267;28;20073;-36
2022/01/05 00:18:09;;;;;;;0.20;0.20;;;;;;;19.53;44.78;99659.31;5129648;28;20047;-35
2022/01/05 00:20:35;;;;;;;0.20;0.20;;;;;;;19.54;44.87;99652.63;5131056;28;20455;-35
2022/01/05 00:23:01;;;;;;;0.20;0.20;;;;;;;19.52;44.66;99658.50;5125892;28;20047;-35
2022/01/05 00:25:26;;;;;;;0.20;0.20;;;;;;;19.53;44.61;99662.06;5128045;28;20104;-36
2022/01/05 00:27:52;;;;;;;0.20;0.20;;;;;;;19.52;44.62;99666.78;5127750;28;20098;-34
2022/01/05 00:30:17;;;;;;;0.20;0.20;;;;;;;19.51;44.57;99669.81;5128635;28;20051;-35
2022/01/05 00:32:43;;;;;;;0.20;0.20;;;;;;;19.52;44.57;99669.53;5128807;28;20043;-35
2022/01/05 00:35:09;;;;;;;0.20;0.20;;;;;;;19.53;44.59;99667.59;5127927;28;20051;-36
2022/01/05 00:37:35;;;;;;;0.20;0.20;;;;;;;19.50;44.66;99657.97;5110663;28;20039;-34
2022/01/05 00:40:01;;;;;;;0.20;0.20;;;;;;;19.52;44.72;99663.19;5130002;28;20054;-34
2022/01/05 00:42:26;;;;;;;0.20;0.20;;;;;;;19.50;44.78;99660.72;5129077;28;20047;-35
2022/01/05 00:44:52;;;;;;;0.20;0.20;;;;;;;19.51;44.53;99651.31;5108619;28;20035;-34
2022/01/05 00:47:18;;;;;;;0.20;0.20;;;;;;;19.52;44.65;99654.91;5128830;28;20042;-34
2022/01/05 00:49:43;;;;;;;0.20;0.20;;;;;;;19.52;44.58;99660.44;5128872;27;20050;-36
2022/01/05 00:52:09;;;;;;;0.20;0.20;;;;;;;19.52;44.73;99669.53;5129443;28;20553;-34
2022/01/05 00:54:34;;;;;;;0.20;0.20;;;;;;;19.52;44.81;99669.53;5125111;28;20058;-35
2022/01/05 00:57:00;;;;;;;0.20;0.20;;;;;;;19.51;44.48;99664.31;5129378;28;20043;-34
2022/01/05 00:59:26;;;;;;;0.20;0.20;;;;;;;19.52;44.55;99669.53;5129728;28;20039;-34
2022/01/05 01:01:52;;;;;;;0.20;0.20;;;;;;;19.52;44.65;99668.72;5128686;28;20413;-35
2022/01/05 01:04:18;;;;;;;0.20;0.20;;;;;;;19.50;44.63;99669.00;5125812;28;20047;-35
2022/01/05 01:06:44;;;;;;;0.20;0.20;;;;;;;19.52;44.65;99672.28;5128050;28;20447;-36
2022/01/05 01:09:09;;;;;;;0.20;0.20;;;;;;;19.51;44.71;99676.16;5128550;28;20108;-34
2022/01/05 01:11:35;;;;;;;0.20;0.20;;;;;;;19.51;44.81;99681.69;5129011;28;20043;-34
2022/01/05 01:14:01;;;;;;;0.20;0.20;;;;;;;19.51;44.65;99689.97;5126637;28;20039;-34
2022/01/05 01:16:26;;;;;;;0.20;0.20;;;;;;;19.51;44.81;99684.44;5110091;28;20087;-34
2022/01/05 01:18:52;;;;;;;0.20;0.20;;;;;;;19.51;44.60;99689.16;5110495;28;20046;-34
2022/01/05 01:21:18;;;;;;;0.20;0.20;;;;;;;19.51;44.48;99694.69;5129126;28;20043;-34
2022/01/05 01:23:54;;;;;;;0.15;0.15;;;;;;;19.50;44.39;99690.28;5125466;27;20408;-34
2022/01/05 01:26:19;;;;;;;0.20;0.20;;;;;;;19.50;44.73;99693.88;5127644;28;20664;-34
2022/01/05 01:28:45;;;;;;;0.20;0.20;;;;;;;19.50;44.48;99688.34;5127180;28;20043;-34
2022/01/05 01:31:11;;;;;;;0.20;0.20;;;;;;;19.50;44.73;99691.09;5128962;28;20047;-35
2022/01/05 01:33:36;;;;;;;0.20;0.20;;;;;;;19.51;44.69;99680.88;5127148;28;20055;-34
2022/01/05 01:36:02;;;;;;;0.20;0.20;;;;;;;19.49;44.68;99695.00;5128408;28;20047;-33
2022/01/05 01:38:28;;;;;;;0.20;0.20;;;;;;;19.50;44.69;99693.88;5128657;28;20131;-33
2022/01/05 01:40:54;;;;;;;0.20;0.20;;;;;;;19.50;44.59;99693.06;5109328;28;20142;-33
2022/01/05 01:43:20;;;;;;;0.13;0.13;;;;;;;19.51;44.54;99695.50;5126885;28;20049;-35
2022/01/05 01:45:45;;;;;;;0.20;0.20;;;;;;;19.50;44.65;99696.63;5128492;28;20039;-34
2022/01/05 01:48:11;;;;;;;0.20;0.20;;;;;;;19.49;44.70;99695.00;5123964;28;20050;-34
2022/01/05 01:50:37;;;;;;;0.20;0.20;;;;;;;19.50;44.55;99691.09;5128175;27;20083;-36
2022/01/05 01:53:03;;;;;;;0.20;0.20;;;;;;;19.51;44.71;99700.19;5106287;28;20409;-34
2022/01/05 01:55:28;;;;;;;0.20;0.20;;;;;;;19.50;44.58;99695.81;5128065;28;20462;-34
2022/01/05 01:57:55;;;;;;;0.20;0.20;;;;;;;19.50;44.84;99698.56;5128667;28;20072;-34
2022/01/05 02:00:21;;;;;;;0.20;0.20;;;;;;;19.50;44.47;99696.63;5128240;28;20047;-34
2022/01/05 02:02:47;;;;;;;0.20;0.20;;;;;;;19.49;44.63;99706.03;5127833;28;20439;-40
2022/01/05 02:05:13;;;;;;;0.20;0.20;;;;;;;19.50;44.59;99707.69;5091680;28;20039;-34
2022/01/05 02:07:39;;;;;;;0.20;0.20;;;;;;;19.50;44.48;99704.09;5109818;28;20350;-35
2022/01/05 02:10:06;;;;;;;0.20;0.20;;;;;;;19.50;44.41;99710.44;5128002;28;20155;-35
2022/01/05 02:12:32;;;;;;;0.20;0.20;;;;;;;19.50;44.52;99713.19;5108406;28;20039;-34
2022/01/05 02:14:58;;;;;;;0.20;0.20;;;;;;;19.49;44.44;99708.81;5127612;28;20073;-34
2022/01/05 02:17:31;;;;;;;0.20;0.20;;;;;;;19.49;44.72;99708.81;5128397;28;20567;-38
2022/01/05 02:19:57;;;;;;;0.13;0.13;;;;;;;19.50;44.50;99712.38;5094345;28;20055;-33
2022/01/05 02:22:22;;;;;;;0.20;0.20;;;;;;;19.49;44.48;99713.53;5126655;28;20035;-34
2022/01/05 02:24:48;;;;;;;0.20;0.20;;;;;;;19.49;44.56;99721.81;5125597;28;20092;-34
2022/01/05 02:27:14;;;;;;;0.20;0.20;;;;;;;19.50;44.55;99720.66;5109005;28;20050;-35
2022/01/05 02:29:40;;;;;;;0.20;0.20;;;;;;;19.49;44.58;99727.31;5126979;28;20051;-34
2022/01/05 02:32:06;;;;;;;0.20;0.20;;;;;;;19.49;44.71;99724.56;5126435;28;20043;-34
2022/01/05 02:34:32;;;;;;;0.20;0.20;;;;;;;19.50;44.59;99728.94;5108592;28;20047;-34
2022/01/05 02:36:58;;;;;;;0.20;0.20;;;;;;;19.49;44.49;99727.31;5110499;28;20112;-34
2022/01/05 02:39:23;;;;;;;0.20;0.20;;;;;;;19.49;44.59;99733.66;5130426;28;20126;-33
2022/01/05 02:41:50;;;;;;;0.20;0.20;;;;;;;19.49;44.63;99739.19;5131404;28;20059;-34
2022/01/05 02:44:15;;;;;;;0.20;0.20;;;;;;;19.48;44.59;99733.97;5130333;28;20053;-34
2022/01/05 02:46:41;;;;;;;0.20;0.20;;;;;;;19.49;44.74;99743.91;5129959;28;20047;-34
2022/01/05 02:49:07;;;;;;;0.20;0.20;;;;;;;19.48;44.67;99743.09;5130606;27;20047;-33
2022/01/05 02:51:32;;;;;;;0.20;0.20;;;;;;;19.48;44.70;99745.84;5129550;28;20730;-33
2022/01/05 02:53:58;;;;;;;0.20;0.20;;;;;;;19.49;44.67;99755.75;5128720;28;20039;-37
2022/01/05 02:56:24;;;;;;;0.20;0.20;;;;;;;19.48;44.52;99758.84;5128509;28;20043;-34
2022/01/05 02:58:49;;;;;;;0.20;0.20;;;;;;;19.48;44.82;99747.78;5130352;28;20046;-36
2022/01/05 03:01:15;;;;;;;0.20;0.20;;;;;;;19.48;44.59;99748.59;5130728;28;20051;-36
2022/01/05 03:03:41;;;;;;;0.20;0.20;;;;;;;19.48;44.69;99756.06;5128947;28;20522;-34
2022/01/05 03:06:07;;;;;;;0.20;0.20;;;;;;;19.48;44.41;99759.66;5111465;28;20039;-33
2022/01/05 03:08:32;;;;;;;0.20;0.20;;;;;;;19.47;44.42;99769.06;5129138;28;20061;-34
2022/01/05 03:10:59;;;;;;;0.20;0.20;;;;;;;19.47;44.79;99785.63;5111330;28;20046;-34
2022/01/05 03:13:25;;;;;;;0.20;0.20;;;;;;;19.48;44.73;99783.69;5129269;28;20039;-34
2022/01/05 03:15:51;;;;;;;0.20;0.20;;;;;;;19.48;44.45;99787.25;5131631;28;20043;-34
2022/01/05 03:18:17;;;;;;;0.20;0.20;;;;;;;19.49;44.51;99799.13;5130589;28;20078;-34
2022/01/05 03:20:45;;;;;;;0.20;0.20;;;;;;;19.48;44.52;99806.59;5111991;28;20043;-34
2022/01/05 03:23:12;;;;;;;0.20;0.20;;;;;;;19.47;44.62;99810.47;5109258;28;20268;-34
2022/01/05 03:25:37;;;;;;;0.20;0.20;;;;;;;19.47;44.45;99809.63;5130015;28;20465;-33
2022/01/05 03:28:03;;;;;;;0.20;0.20;;;;;;;19.47;44.72;99809.63;5111578;28;20043;-34
2022/01/05 03:30:30;;;;;;;0.20;0.20;;;;;;;19.48;44.75;99808.53;5129814;28;20645;-34
2022/01/05 03:33:08;;;;;;;0.20;0.20;;;;;;;19.48;44.42;99814.88;5111029;28;20059;-35
2022/01/05 03:35:39;;;;;;;0.20;0.20;;;;;;;19.48;44.37;99814.88;5130161;28;20500;-34
2022/01/05 03:38:05;;;;;;;0.20;0.20;;;;;;;19.47;44.74;99813.25;5129948;28;20096;-34
2022/01/05 03:40:32;;;;;;;0.20;0.20;;;;;;;19.47;44.60;99823.44;5130959;28;20043;-35
2022/01/05 03:42:58;;;;;;;0.20;0.20;;;;;;;19.49;44.43;99823.97;5126809;28;20136;-34
2022/01/05 03:45:23;;;;;;;0.20;0.20;;;;;;;19.48;44.66;99828.69;5110389;28;20052;-34
2022/01/05 03:47:49;;;;;;;0.20;0.20;;;;;;;19.48;44.42;99830.63;5130820;27;20795;-34
2022/01/05 03:50:15;;;;;;;0.20;0.20;;;;;;;19.48;44.41;99827.88;5128872;27;20046;-34
2022/01/05 03:52:41;;;;;;;0.20;0.20;;;;;;;19.47;44.77;99835.34;5128771;28;20104;-37
2022/01/05 03:55:07;;;;;;;0.20;0.20;;;;;;;19.47;44.33;99848.28;5128024;28;20043;-34
2022/01/05 03:57:32;;;;;;;0.20;0.20;;;;;;;19.47;44.42;99846.38;5129936;28;20043;-34
2022/01/05 03:59:59;;;;;;;0.20;0.20;;;;;;;19.47;44.44;99848.28;5130979;28;20095;-35
2022/01/05 04:02:25;;;;;;;0.20;0.20;;;;;;;19.48;44.65;99861.00;5111230;28;20038;-34
2022/01/05 04:04:51;;;;;;;0.20;0.20;;;;;;;19.48;44.49;99866.53;5128172;28;20143;-34
2022/01/05 04:07:17;;;;;;;0.20;0.20;;;;;;;19.47;44.70;99868.47;5112380;28;20046;-34
2022/01/05 04:09:43;;;;;;;0.20;0.20;;;;;;;19.47;44.54;99868.47;5111078;28;20050;-34
2022/01/05 04:12:09;;;;;;;0.20;0.20;;;;;;;19.47;44.52;99882.28;5110365;28;20043;-34
2022/01/05 04:14:35;;;;;;;0.20;0.20;;;;;;;19.47;44.41;99874.00;5129683;28;20035;-34
2022/01/05 04:17:04;;;;;;;0.20;0.20;;;;;;;19.47;44.67;99884.19;5111503;28;20481;-34
2022/01/05 04:19:31;;;;;;;0.20;0.20;;;;;;;19.46;44.52;99885.31;5129859;28;20055;-33
2022/01/05 04:21:57;;;;;;;0.20;0.20;;;;;;;19.47;44.44;99885.03;5127072;28;20055;-34
2022/01/05 04:24:23;;;;;;;0.20;0.20;;;;;;;19.48;44.65;99892.19;5107866;28;20488;-34
2022/01/05 04:26:49;;;;;;;0.20;0.20;;;;;;;19.47;44.41;99889.72;5128385;28;20043;-34
2022/01/05 04:29:14;;;;;;;0.20;0.20;;;;;;;19.47;44.45;99889.72;5109289;28;20469;-34
2022/01/05 04:31:40;;;;;;;0.20;0.20;;;;;;;19.48;44.39;99899.66;5129550;28;20166;-34
2022/01/05 04:34:06;;;;;;;0.20;0.20;;;;;;;19.47;44.40;99901.59;5128529;28;20081;-34
2022/01/05 04:36:51;;;;;;;0.20;0.20;;;;;;;19.47;44.43;99909.88;5113984;28;20043;-34
2022/01/05 04:39:17;;;;;;;0.20;0.20;;;;;;;19.48;44.67;99903.22;5129420;28;20054;-33
2022/01/05 04:41:43;;;;;;;0.20;0.20;;;;;;;19.46;44.33;99911.00;5125491;28;20523;-34
2022/01/05 04:44:08;;;;;;;0.20;0.20;;;;;;;19.46;44.41;99905.47;5128939;28;20389;-35
2022/01/05 04:46:34;;;;;;;0.20;0.20;;;;;;;19.47;44.34;99907.13;5127984;28;20054;-33
2022/01/05 04:49:00;;;;;;;0.20;0.20;;;;;;;19.47;44.40;99911.81;5128585;28;20450;-35
2022/01/05 04:51:26;;;;;;;0.20;0.20;;;;;;;19.48;44.35;99907.94;5129143;28;20085;-33
2022/01/05 04:53:51;;;;;;;0.20;0.20;;;;;;;19.46;44.24;99904.66;5126278;28;20042;-34
2022/01/05 04:56:18;;;;;;;0.20;0.20;;;;;;;19.46;44.52;99921.22;5128606;28;20458;-34
2022/01/05 04:58:43;;;;;;;0.20;0.20;;;;;;;19.47;44.75;99911.81;5109846;28;20099;-33
2022/01/05 05:01:09;;;;;;;0.20;0.20;;;;;;;19.47;44.27;99912.66;5129978;28;20495;-34
2022/01/05 05:03:35;;;;;;;0.20;0.20;;;;;;;19.46;44.42;99913.75;5126751;28;20076;-35
2022/01/05 05:06:00;;;;;;;0.30;0.30;;;;;;;19.47;44.72;99912.66;5128962;28;20035;-33
2022/01/05 05:08:26;;;;;;;0.20;0.20;;;;;;;19.48;44.28;99913.47;5129315;28;20047;-34
2022/01/05 05:10:52;;;;;;;0.20;0.20;;;;;;;19.47;44.58;99922.84;5129554;28;20039;-35
2022/01/05 05:13:17;;;;;;;0.20;0.20;;;;;;;19.47;44.32;99917.31;5125700;28;20043;-34
2022/01/05 05:15:43;;;;;;;0.20;0.20;;;;;;;19.46;44.58;99922.03;5128375;28;20515;-34
2022/01/05 05:18:09;;;;;;;0.20;0.20;;;;;;;19.47;44.55;99922.84;5129192;28;20107;-33
2022/01/05 05:20:34;;;;;;;0.20;0.20;;;;;;;19.47;44.43;99928.38;5128169;28;20050;-34
2022/01/05 05:23:01;;;;;;;0.20;0.20;;;;;;;19.47;44.41;99929.22;5124917;28;20047;-36
2022/01/05 05:25:27;;;;;;;0.20;0.20;;;;;;;19.46;44.60;99922.03;5093248;28;20067;-34
2022/01/05 05:27:53;;;;;;;0.20;0.20;;;;;;;19.46;44.49;99930.31;5127867;28;20296;-35
2022/01/05 05:30:31;;;;;;;0.20;0.20;;;;;;;19.47;44.64;99922.84;5110889;28;20099;-34
2022/01/05 05:32:57;;;;;;;0.20;0.20;;;;;;;19.46;44.60;99912.94;5127098;28;20043;-34
2022/01/05 05:35:23;;;;;;;0.20;0.20;;;;;;;19.47;44.55;99914.56;5128800;28;20051;-35
2022/01/05 05:37:49;;;;;;;0.20;0.20;;;;;;;19.46;44.58;99918.47;5129871;28;20121;-37
2022/01/05 05:40:15;;;;;;;0.20;0.20;;;;;;;19.48;44.33;99916.22;5110631;28;20090;-36
2022/01/05 05:42:40;;;;;;;0.20;0.20;;;;;;;19.46;44.61;99921.22;5128369;28;20043;-34
2022/01/05 05:45:07;;;;;;;0.20;0.20;;;;;;;19.46;44.48;99932.25;5126502;28;20081;-34
2022/01/05 05:47:33;;;;;;;0.20;0.20;;;;;;;19.45;44.47;99931.44;5129072;28;20051;-34
2022/01/05 05:49:59;;;;;;;0.20;0.20;;;;;;;19.46;44.54;99932.25;5110319;28;20055;-34
2022/01/05 05:52:25;;;;;;;0.20;0.20;;;;;;;19.46;44.36;99933.09;5127298;28;20067;-36
2022/01/05 05:54:52;;;;;;;0.20;0.20;;;;;;;19.47;44.36;99931.13;5126216;28;20038;-34
2022/01/05 05:57:37;;;;;;;0.20;0.20;;;;;;;19.46;44.36;99938.59;5114080;28;20054;-34
2022/01/05 06:00:05;;;;;;;0.20;0.20;;;;;;;19.46;44.30;99940.56;5127664;28;20055;-34
2022/01/05 06:02:31;;;;;;;0.20;0.20;;;;;;;19.46;44.56;99935.84;5128512;28;20457;-34
2022/01/05 06:04:57;;;;;;;0.20;0.20;;;;;;;19.45;44.61;99933.41;5108198;28;20053;-35
2022/01/05 06:07:23;;;;;;;0.20;0.20;;;;;;;19.45;44.42;99936.97;5128176;28;20428;-35
2022/01/05 06:09:48;;;;;;;0.20;0.20;;;;;;;19.46;44.33;99948.84;5128234;27;20073;-34
2022/01/05 06:12:14;;;;;;;0.20;0.20;;;;;;;19.46;44.52;99940.56;5130021;28;20066;-34
2022/01/05 06:14:40;;;;;;;0.20;0.20;;;;;;;19.46;44.43;99954.34;5130708;28;20065;-35
2022/01/05 06:17:05;;;;;;;0.20;0.20;;;;;;;19.46;44.21;99951.59;5131445;28;20035;-35
2022/01/05 06:19:32;;;;;;;0.20;0.20;;;;;;;19.46;44.62;99959.88;5113664;28;20043;-36
2022/01/05 06:21:58;;;;;;;0.20;0.20;;;;;;;19.46;44.58;99962.63;5130908;28;20058;-34
2022/01/05 06:24:25;;;;;;;0.20;0.20;;;;;;;19.46;44.29;99965.41;5128158;28;20042;-34
2022/01/05 06:26:52;;;;;;;0.20;0.20;;;;;;;19.45;44.46;99948.03;5130629;28;20231;-34
2022/01/05 06:29:19;;;;;;;0.20;0.20;;;;;;;19.45;44.33;99955.50;5110257;28;20254;-34
2022/01/05 06:31:44;;;;;;;0.20;0.20;;;;;;;19.45;44.37;99964.59;5131089;28;20064;-35
2022/01/05 06:34:10;;;;;;;0.20;0.20;;;;;;;19.45;44.61;99972.88;5130838;28;20050;-34
2022/01/05 06:36:36;;;;;;;0.20;0.20;;;;;;;19.46;44.30;99970.94;5131058;28;20054;-35
2022/01/05 06:39:02;;;;;;;0.17;0.17;;;;;;;19.45;44.21;99972.88;5130072;28;20070;-34
2022/01/05 06:41:28;;;;;;;0.20;0.20;;;;;;;19.45;44.21;99975.63;5131021;28;20047;-37
2022/01/05 06:43:53;;;;;;;0.20;0.20;;;;;;;19.45;44.55;99975.63;5129978;28;20471;-36
2022/01/05 06:46:19;;;;;;;0.20;0.20;;;;;;;19.45;44.34;99983.91;5130296;28;20055;-35
2022/01/05 06:48:45;;;;;;;0.20;0.20;;;;;;;19.46;44.22;99988.31;5130486;28;20050;-35
2022/01/05 06:51:10;;;;;;;0.20;0.20;;;;;;;19.47;43.89;99980.84;5130620;28;20257;-36
2022/01/05 06:53:37;;;;;;;0.20;0.20;;;;;;;19.47;44.32;99997.41;5127648;28;20039;-34
2022/01/05 06:56:03;;;;;;;0.20;0.20;;;;;;;19.45;44.19;99981.16;5130720;28;20438;-34
2022/01/05 06:58:29;;;;;;;0.20;0.20;;;;;;;19.44;44.29;99990.56;5130837;28;20054;-36
2022/01/05 07:00:55;;;;;;;0.20;0.20;;;;;;;19.44;44.54;99987.81;5131114;28;20046;-35
2022/01/05 07:03:21;;;;;;;0.20;0.20;;;;;;;19.45;44.58;99988.63;5129942;28;20039;-34
2022/01/05 07:05:47;;;;;;;0.20;0.20;;;;;;;19.46;44.44;99993.00;5131292;28;20047;-34
2022/01/05 07:08:13;;;;;;;0.20;0.20;;;;;;;19.46;44.32;99996.59;5130214;28;20078;-33
2022/01/05 07:10:38;;;;;;;0.20;0.20;;;;;;;19.46;44.30;99996.59;5130414;28;20035;-34
2022/01/05 07:13:05;;;;;;;0.20;0.20;;;;;;;19.47;44.20;100002.94;5110116;28;20100;-34
2022/01/05 07:15:31;;;;;;;0.20;0.20;;;;;;;19.46;44.41;100006.81;5130137;28;20375;-34
2022/01/05 07:17:57;;;;;;;0.20;0.20;;;;;;;19.46;44.30;100002.13;5131683;28;20054;-34
2022/01/05 07:20:22;;;;;;;0.20;0.20;;;;;;;19.47;44.15;100005.69;5112211;28;20485;-34
2022/01/05 07:22:48;;;;;;;0.20;0.20;;;;;;;19.47;44.45;100009.28;5127035;27;20096;-36
2022/01/05 07:25:14;;;;;;;0.20;0.20;;;;;;;19.46;44.43;100010.41;5129784;28;20043;-34
2022/01/05 07:27:39;;;;;;;0.20;0.20;;;;;;;19.45;44.33;100019.81;5128998;28;20103;-34
2022/01/05 07:30:06;;;;;;;0.20;0.20;;;;;;;19.46;44.53;100017.88;5129602;28;20047;-35
2022/01/05 07:32:32;;;;;;;0.20;0.20;;;;;;;19.46;44.12;100017.88;5112248;28;20045;-33
2022/01/05 07:34:57;;;;;;;0.20;0.20;;;;;;;19.46;44.36;100017.88;5109374;28;20133;-34
2022/01/05 07:37:23;;;;;;;0.20;0.20;;;;;;;19.45;44.25;100033.63;5111311;28;20039;-34
2022/01/05 07:39:49;;;;;;;0.20;0.20;;;;;;;19.46;44.13;100037.19;5112749;28;20209;-34
2022/01/05 07:42:15;;;;;;;0.20;0.20;;;;;;;19.45;44.16;100033.63;5110401;28;20039;-34
2022/01/05 07:44:41;;;;;;;0.20;0.20;;;;;;;19.46;44.41;100031.66;5128152;28;20071;-34
2022/01/05 07:47:08;;;;;;;0.20;0.20;;;;;;;19.44;44.08;100032.00;5110954;28;20088;-34
2022/01/05 07:49:33;;;;;;;0.20;0.20;;;;;;;19.44;44.13;100029.22;5130116;28;20047;-37
2022/01/05 07:51:59;;;;;;;0.20;0.20;;;;;;;19.45;44.31;100022.56;5110439;28;20050;-33
2022/01/05 07:54:25;;;;;;;0.20;0.20;;;;;;;19.45;44.34;100033.63;5108715;28;20423;-33
2022/01/05 07:56:51;;;;;;;0.10;0.10;;;;;;;19.46;44.12;100037.19;5111477;28;20474;-34
2022/01/05 07:59:17;;;;;;;0.20;0.20;;;;;;;19.45;44.44;100038.31;5129144;28;20035;-33
2022/01/05 08:01:42;;;;;;;0.20;0.20;;;;;;;19.46;44.21;100039.97;5129693;28;20407;-34
2022/01/05 08:04:08;;;;;;;0.20;0.20;;;;;;;19.46;44.28;100059.28;5128653;28;20624;-33
2022/01/05 08:06:34;;;;;;;0.20;0.20;;;;;;;19.46;44.14;100056.53;5111622;28;20263;-34
2022/01/05 08:09:00;;;;;;;0.20;0.20;;;;;;;19.45;44.08;100064.00;5130171;28;20062;-35
2022/01/05 08:11:26;;;;;;;0.20;0.20;;;;;;;19.45;44.10;100052.13;5128415;28;20043;-33
2022/01/05 08:13:52;;;;;;;0.20;0.20;;;;;;;19.45;44.13;100054.91;5128207;28;20083;-34
2022/01/05 08:16:18;;;;;;;0.20;0.20;;;;;;;19.46;44.35;100064.81;5095354;28;20473;-37
2022/01/05 08:18:44;;;;;;;0.20;0.20;;;;;;;19.45;44.18;100052.94;5128993;28;20096;-34
2022/01/05 08:21:11;;;;;;;0.20;0.20;;;;;;;19.45;44.19;100060.41;5128569;28;20051;-34
2022/01/05 08:23:36;;;;;;;0.20;0.20;;;;;;;19.46;44.24;100064.81;5125957;28;20046;-34
2022/01/05 08:26:04;;;;;;;0.20;0.20;;;;;;;19.47;44.07;100077.47;5128038;28;20050;-34
2022/01/05 08:28:29;;;;;;;0.20;0.20;;;;;;;19.46;44.27;100070.34;5109172;28;20043;-37
2022/01/05 08:30:55;;;;;;;0.20;0.20;;;;;;;19.45;43.93;100077.81;5110349;28;20189;-34
2022/01/05 08:33:21;;;;;;;0.20;0.20;;;;;;;19.45;44.02;100083.31;5108458;28;20050;-34
2022/01/05 08:35:47;;;;;;;0.20;0.20;;;;;;;19.46;44.29;100081.38;5130142;28;20042;-35
2022/01/05 08:38:14;;;;;;;0.20;0.20;;;;;;;19.46;43.96;100078.63;5127984;28;20039;-35
2022/01/05 08:40:40;;;;;;;0.20;0.20;;;;;;;19.46;44.10;100087.72;5110740;28;20098;-34
2022/01/05 08:43:07;;;;;;;0.20;0.20;;;;;;;19.44;44.28;100089.97;5127539;28;20035;-35
2022/01/05 08:45:33;;;;;;;0.20;0.20;;;;;;;19.46;44.10;100084.94;5111092;28;20125;-34
2022/01/05 08:47:59;;;;;;;0.20;0.20;;;;;;;19.44;44.04;100087.22;5110682;28;20070;-34
2022/01/05 08:50:28;;;;;;;0.20;0.20;;;;;;;19.46;44.24;100086.91;5110163;28;20054;-34
2022/01/05 08:52:55;;;;;;;0.20;0.20;;;;;;;19.45;44.10;100096.31;5106812;28;20859;-34
2022/01/05 08:55:23;;;;;;;0.20;0.20;;;;;;;19.44;44.00;100094.69;5128582;28;20043;-35
2022/01/05 08:57:49;;;;;;;0.20;0.20;;;;;;;19.45;44.25;100097.13;5127346;28;20400;-36
2022/01/05 09:00:16;;;;;;;0.20;0.20;;;;;;;19.46;44.09;100100.72;5110246;28;20043;-35
2022/01/05 09:02:42;;;;;;;0.20;0.20;;;;;;;19.45;43.97;100104.59;5124283;28;20107;-37
2022/01/05 09:05:09;;;;;;;0.20;0.20;;;;;;;19.46;44.07;100092.41;5128622;28;20061;-35
2022/01/05 09:07:34;;;;;;;0.20;0.20;;;;;;;19.46;44.04;100084.13;5110018;28;20413;-34
2022/01/05 09:10:03;;;;;;;0.20;0.20;;;;;;;19.45;44.20;100083.31;5125466;28;20046;-36
2022/01/05 09:12:29;;;;;;;0.20;0.20;;;;;;;19.44;44.14;100078.94;5110934;28;20039;-35
2022/01/05 09:14:54;;;;;;;0.20;0.20;;;;;;;19.44;44.14;100070.66;5127175;28;20508;-34
2022/01/05 09:17:21;;;;;;;0.20;0.20;;;;;;;19.45;44.20;100066.75;5128608;28;20048;-34
2022/01/05 09:19:46;;;;;;;0.20;0.20;;;;;;;19.46;44.07;100082.19;5128350;28;20082;-34
2022/01/05 09:22:12;;;;;;;0.20;0.20;;;;;;;19.45;44.19;100091.59;5128305;28;20293;-35
2022/01/05 09:24:47;;;;;;;0.20;0.20;;;;;;;19.46;44.09;100095.19;5106801;28;20054;-36
2022/01/05 09:27:13;;;;;;;0.20;0.20;;;;;;;19.46;43.87;100100.72;5108607;28;20043;-34
2022/01/05 09:29:40;;;;;;;0.20;0.20;;;;;;;19.46;44.12;100078.63;5127116;28;20084;-34
2022/01/05 09:32:08;;;;;;;0.20;0.20;;;;;;;19.45;43.99;100086.09;5110261;28;20181;-34
2022/01/05 09:34:36;;;;;;;;;;;;;;;19.45;44.08;100097.13;5109298;28;20439;-34
2022/01/05 09:37:09;;;;;;;0.20;0.20;;;;;;;19.45;43.88;100110.94;5128085;28;19919;-34
2022/01/05 09:42:22;;;;;;;0.20;0.20;;;;;;;19.45;44.04;100115.66;5111771;28;20406;-34
2022/01/05 09:44:49;;;;;;;0.20;0.20;;;;;;;19.46;44.07;100120.03;5130345;27;20046;-34
2022/01/05 09:47:55;;;;;;;0.20;0.20;;;;;;;19.46;44.08;100129.13;5099537;28;20174;-34
2022/01/05 09:50:21;;;;;;;0.20;0.20;;;;;;;19.45;44.12;100123.94;5103542;28;20047;-33
2022/01/05 09:52:47;;;;;;;0.20;0.20;;;;;;;19.45;44.05;100113.69;5129492;28;20043;-37
2022/01/05 09:55:15;;;;;;;0.20;0.20;;;;;;;19.46;44.26;100114.50;5111852;28;20560;-33
2022/01/05 09:57:44;;;;;;;0.17;0.17;;;;;;;19.45;44.10;100110.13;5112501;28;20404;-35
2022/01/05 10:00:12;;;;;;;0.20;0.20;;;;;;;19.45;43.95;100102.66;5131224;28;20546;-35
2022/01/05 10:02:39;;;;;;;0.20;0.20;;;;;;;19.46;43.93;100120.03;5113448;28;20103;-34
2022/01/05 10:05:08;;;;;;;0.20;0.20;;;;;;;19.45;43.84;100119.22;5111259;28;20058;-34
2022/01/05 10:07:34;;;;;;;0.20;0.20;;;;;;;19.46;43.87;100125.56;5112591;28;20126;-34
2022/01/05 10:10:00;;;;;;;0.20;0.20;;;;;;;19.45;44.12;100108.19;5112099;28;20412;-34
2022/01/05 10:12:26;;;;;;;0.20;0.20;;;;;;;19.45;43.91;100121.16;5131639;28;20039;-34
2022/01/05 10:14:51;;;;;;;0.20;0.20;;;;;;;19.46;44.02;100122.78;5129843;28;20532;-34
2022/01/05 10:17:25;;;;;;;0.20;0.20;;;;;;;19.48;43.90;100115.03;5131397;28;20477;-34
2022/01/05 10:19:59;;;;;;;;;;;;;;;19.46;43.89;100123.63;5096987;28;20043;-35
2022/01/05 10:22:31;;;;;;;0.20;0.20;;;;;;;19.45;44.02;100129.44;5130377;28;19924;-35
2022/01/05 10:24:57;;;;;;;0.20;0.20;;;;;;;19.44;43.86;100125.06;5128542;28;20044;-34
2022/01/05 10:27:24;;;;;;;0.20;0.20;;;;;;;19.45;44.16;100132.22;5128412;28;20058;-34
2022/01/05 10:29:55;;;;;;;0.20;0.20;;;;;;;19.44;43.93;100130.56;5130559;28;20043;-34
2022/01/05 10:32:22;;;;;;;0.10;0.10;;;;;;;19.46;43.95;100139.38;5112518;28;20309;-34
2022/01/05 10:35:09;;;;;;;0.20;0.20;;;;;;;19.46;43.87;100122.78;5128287;28;20426;-35
2022/01/05 10:37:38;;;;;;;0.20;0.20;;;;;;;19.45;43.87;100127.50;5112692;28;20039;-35
2022/01/05 10:40:14;;;;;;;0.20;0.20;;;;;;;19.45;43.86;100126.69;5094342;28;20440;-34
2022/01/05 10:42:41;;;;;;;0.20;0.20;;;;;;;19.44;43.89;100120.34;5129240;28;20080;-35
2022/01/05 10:45:10;;;;;;;0.20;0.20;;;;;;;19.45;44.11;100121.16;5111025;28;20642;-34
2022/01/05 10:47:36;;;;;;;0.20;0.20;;;;;;;19.45;43.68;100121.97;5112850;28;20126;-35
2022/01/05 10:50:05;;;;;;;0.20;0.20;;;;;;;19.47;43.82;100141.00;5094888;28;20049;-34
2022/01/05 10:52:34;;;;;;;0.20;0.20;;;;;;;19.46;44.00;100144.88;5127745;28;20147;-35
2022/01/05 10:55:17;;;;;;;0.20;0.20;;;;;;;19.46;43.85;100131.09;5094495;28;20047;-34
2022/01/05 10:58:04;;;;;;;0.20;0.20;;;;;;;19.46;43.67;100131.09;5111480;28;20061;-34
2022/01/05 11:00:35;;;;;;;0.20;0.20;;;;;;;19.46;43.93;100131.09;5101958;28;20048;-34
2022/01/05 11:03:01;;;;;;;0.20;0.20;;;;;;;19.46;43.82;100133.84;5128327;28;21301;-34
2022/01/05 11:05:27;;;;;;;0.20;0.20;;;;;;;19.45;43.81;100146.84;5130678;28;20385;-34
2022/01/05 11:08:06;;;;;;;0.20;0.20;;;;;;;19.45;43.79;100134.97;5129581;28;20050;-34
2022/01/05 11:10:31;;;;;;;0.20;0.20;;;;;;;19.45;43.99;100141.31;5111026;28;20111;-35
2022/01/05 11:13:02;;;;;;;0.20;0.20;;;;;;;19.45;44.01;100148.78;5128602;28;20043;-34
2022/01/05 11:15:31;;;;;;;0.20;0.20;;;;;;;19.46;43.81;100142.13;5129737;28;20046;-34
2022/01/05 11:18:14;;;;;;;0.20;0.20;;;;;;;19.46;43.87;100151.22;5130105;28;20043;-34
2022/01/05 11:21:01;;;;;;;0.20;0.20;;;;;;;19.46;43.69;100133.84;5108513;28;20047;-34
2022/01/05 11:23:28;;;;;;;0.20;0.20;;;;;;;19.45;43.88;100140.50;5110378;28;20131;-34
2022/01/05 11:25:56;;;;;;;0.20;0.20;;;;;;;19.46;44.02;100136.59;5126664;28;20040;-35
2022/01/05 11:28:23;;;;;;;0.20;0.20;;;;;;;19.46;43.78;100142.94;5125137;28;20538;-34
2022/01/05 11:30:50;;;;;;;0.20;0.20;;;;;;;19.46;43.95;100142.13;5128308;28;20295;-35
2022/01/05 11:33:17;;;;;;;0.20;0.20;;;;;;;19.46;43.82;100123.63;5127713;28;20077;-34